sensor_id;sensor_type;location;lat;lon;timestamp;P1;durP1;ratioP1;P2;durP2;ratioP2
71836;SDS011;59686;51.716;7.016;2024-02-21T00:02:10;17.70;;;8.77;;
71836;SDS011;59686;51.716;7.016;2024-02-21T00:04:36;19.50;;;9.23;;
71836;SDS011;59686;51.716;7.016;2024-02-21T00:07:03;14.60;;;8.63;;
71836;SDS011;59686;51.716;7.016;2024-02-21T00:09:29;15.73;;;8.77;;
71836;SDS011;59686;51.716;7.016;2024-02-21T00:11:55;19.83;;;8.53;;
71836;SDS011;59686;51.716;7.016;2024-02-21T00:14:21;15.33;;;8.60;;
71836;SDS011;59686;51.716;7.016;2024-02-21T00:16:46;19.17;;;8.83;;
71836;SDS011;59686;51.716;7.016;2024-02-21T00:19:12;15.73;;;8.53;;
71836;SDS011;59686;51.716;7.016;2024-02-21T00:21:39;16.53;;;9.23;;
71836;SDS011;59686;51.716;7.016;2024-02-21T00:24:05;17.77;;;9.33;;
71836;SDS011;59686;51.716;7.016;2024-02-21T00:26:31;20.33;;;9.00;;
71836;SDS011;59686;51.716;7.016;2024-02-21T00:28:57;14.83;;;8.43;;
71836;SDS011;59686;51.716;7.016;2024-02-21T00:31:22;20.97;;;9.97;;
71836;SDS011;59686;51.716;7.016;2024-02-21T00:33:48;20.13;;;9.50;;
71836;SDS011;59686;51.716;7.016;2024-02-21T00:36:14;20.57;;;9.77;;
71836;SDS011;59686;51.716;7.016;2024-02-21T00:38:40;19.20;;;9.83;;
71836;SDS011;59686;51.716;7.016;2024-02-21T00:41:06;18.97;;;10.03;;
71836;SDS011;59686;51.716;7.016;2024-02-21T00:43:31;14.83;;;9.57;;
71836;SDS011;59686;51.716;7.016;2024-02-21T00:45:57;18.63;;;10.20;;
71836;SDS011;59686;51.716;7.016;2024-02-21T00:48:23;18.67;;;10.33;;
71836;SDS011;59686;51.716;7.016;2024-02-21T00:50:48;19.97;;;10.53;;
71836;SDS011;59686;51.716;7.016;2024-02-21T00:53:14;19.00;;;10.87;;
71836;SDS011;59686;51.716;7.016;2024-02-21T00:55:41;18.80;;;9.93;;
71836;SDS011;59686;51.716;7.016;2024-02-21T00:58:08;19.67;;;10.47;;
71836;SDS011;59686;51.716;7.016;2024-02-21T01:00:34;23.00;;;10.60;;
71836;SDS011;59686;51.716;7.016;2024-02-21T01:02:59;22.40;;;10.67;;
71836;SDS011;59686;51.716;7.016;2024-02-21T01:05:25;20.97;;;10.80;;
71836;SDS011;59686;51.716;7.016;2024-02-21T01:07:52;17.27;;;10.03;;
71836;SDS011;59686;51.716;7.016;2024-02-21T01:10:18;20.07;;;9.67;;
71836;SDS011;59686;51.716;7.016;2024-02-21T01:12:43;17.13;;;10.10;;
71836;SDS011;59686;51.716;7.016;2024-02-21T01:15:09;18.90;;;10.50;;
71836;SDS011;59686;51.716;7.016;2024-02-21T01:17:35;21.10;;;10.73;;
71836;SDS011;59686;51.716;7.016;2024-02-21T01:20:01;21.77;;;10.20;;
71836;SDS011;59686;51.716;7.016;2024-02-21T01:22:28;20.17;;;10.70;;
71836;SDS011;59686;51.716;7.016;2024-02-21T01:24:53;18.93;;;10.40;;
71836;SDS011;59686;51.716;7.016;2024-02-21T01:27:19;18.20;;;10.47;;
71836;SDS011;59686;51.716;7.016;2024-02-21T01:29:46;23.70;;;10.73;;
71836;SDS011;59686;51.716;7.016;2024-02-21T01:32:14;17.40;;;10.47;;
71836;SDS011;59686;51.716;7.016;2024-02-21T01:34:40;20.60;;;11.03;;
71836;SDS011;59686;51.716;7.016;2024-02-21T01:37:06;18.93;;;10.67;;
71836;SDS011;59686;51.716;7.016;2024-02-21T01:39:32;20.40;;;10.57;;
71836;SDS011;59686;51.716;7.016;2024-02-21T01:41:58;23.27;;;11.13;;
71836;SDS011;59686;51.716;7.016;2024-02-21T01:44:24;19.73;;;10.57;;
71836;SDS011;59686;51.716;7.016;2024-02-21T01:46:50;20.47;;;11.20;;
71836;SDS011;59686;51.716;7.016;2024-02-21T01:49:17;25.10;;;11.47;;
71836;SDS011;59686;51.716;7.016;2024-02-21T01:51:44;19.17;;;10.73;;
71836;SDS011;59686;51.716;7.016;2024-02-21T01:54:10;18.70;;;10.67;;
71836;SDS011;59686;51.716;7.016;2024-02-21T01:56:38;18.87;;;10.17;;
71836;SDS011;59686;51.716;7.016;2024-02-21T01:59:04;21.17;;;11.00;;
71836;SDS011;59686;51.716;7.016;2024-02-21T02:01:30;18.80;;;10.27;;
71836;SDS011;59686;51.716;7.016;2024-02-21T02:03:55;17.80;;;10.37;;
71836;SDS011;59686;51.716;7.016;2024-02-21T02:06:22;17.50;;;10.73;;
71836;SDS011;59686;51.716;7.016;2024-02-21T02:08:47;22.13;;;11.73;;
71836;SDS011;59686;51.716;7.016;2024-02-21T02:11:13;20.97;;;11.20;;
71836;SDS011;59686;51.716;7.016;2024-02-21T02:13:40;19.73;;;10.40;;
71836;SDS011;59686;51.716;7.016;2024-02-21T02:16:05;18.70;;;10.80;;
71836;SDS011;59686;51.716;7.016;2024-02-21T02:18:31;18.97;;;10.43;;
71836;SDS011;59686;51.716;7.016;2024-02-21T02:20:57;18.43;;;10.00;;
71836;SDS011;59686;51.716;7.016;2024-02-21T02:25:53;18.03;;;11.10;;
71836;SDS011;59686;51.716;7.016;2024-02-21T02:28:18;20.07;;;10.90;;
71836;SDS011;59686;51.716;7.016;2024-02-21T02:30:44;18.00;;;10.57;;
71836;SDS011;59686;51.716;7.016;2024-02-21T02:33:10;20.23;;;10.60;;
71836;SDS011;59686;51.716;7.016;2024-02-21T02:35:36;17.50;;;10.47;;
71836;SDS011;59686;51.716;7.016;2024-02-21T02:38:02;17.13;;;10.00;;
71836;SDS011;59686;51.716;7.016;2024-02-21T02:40:28;18.70;;;10.20;;
71836;SDS011;59686;51.716;7.016;2024-02-21T02:42:54;16.50;;;9.83;;
71836;SDS011;59686;51.716;7.016;2024-02-21T02:45:20;16.27;;;10.20;;
71836;SDS011;59686;51.716;7.016;2024-02-21T02:47:48;23.70;;;10.67;;
71836;SDS011;59686;51.716;7.016;2024-02-21T02:50:14;19.43;;;10.10;;
71836;SDS011;59686;51.716;7.016;2024-02-21T02:52:40;20.33;;;10.07;;
71836;SDS011;59686;51.716;7.016;2024-02-21T02:55:05;19.23;;;9.87;;
71836;SDS011;59686;51.716;7.016;2024-02-21T02:57:32;16.23;;;9.97;;
71836;SDS011;59686;51.716;7.016;2024-02-21T02:59:58;17.43;;;10.07;;
71836;SDS011;59686;51.716;7.016;2024-02-21T03:02:24;15.47;;;8.77;;
71836;SDS011;59686;51.716;7.016;2024-02-21T03:04:50;21.67;;;9.77;;
71836;SDS011;59686;51.716;7.016;2024-02-21T03:07:15;16.63;;;9.27;;
71836;SDS011;59686;51.716;7.016;2024-02-21T03:09:41;15.53;;;9.17;;
71836;SDS011;59686;51.716;7.016;2024-02-21T03:12:10;19.70;;;9.90;;
71836;SDS011;59686;51.716;7.016;2024-02-21T03:14:36;16.40;;;8.97;;
71836;SDS011;59686;51.716;7.016;2024-02-21T03:17:02;14.37;;;8.37;;
71836;SDS011;59686;51.716;7.016;2024-02-21T03:19:28;15.00;;;8.40;;
71836;SDS011;59686;51.716;7.016;2024-02-21T03:21:54;18.07;;;9.27;;
71836;SDS011;59686;51.716;7.016;2024-02-21T03:24:20;15.57;;;9.53;;
71836;SDS011;59686;51.716;7.016;2024-02-21T03:26:46;18.33;;;8.93;;
71836;SDS011;59686;51.716;7.016;2024-02-21T03:29:14;17.27;;;8.40;;
71836;SDS011;59686;51.716;7.016;2024-02-21T03:31:40;18.33;;;9.90;;
71836;SDS011;59686;51.716;7.016;2024-02-21T03:34:06;16.23;;;8.60;;
71836;SDS011;59686;51.716;7.016;2024-02-21T03:36:32;15.77;;;8.77;;
71836;SDS011;59686;51.716;7.016;2024-02-21T03:38:58;14.77;;;8.83;;
71836;SDS011;59686;51.716;7.016;2024-02-21T03:41:24;15.97;;;8.73;;
71836;SDS011;59686;51.716;7.016;2024-02-21T03:43:50;16.53;;;9.00;;
71836;SDS011;59686;51.716;7.016;2024-02-21T03:46:15;17.00;;;8.80;;
71836;SDS011;59686;51.716;7.016;2024-02-21T03:48:41;17.23;;;8.90;;
71836;SDS011;59686;51.716;7.016;2024-02-21T03:51:08;14.90;;;8.07;;
71836;SDS011;59686;51.716;7.016;2024-02-21T03:53:33;14.63;;;8.57;;
71836;SDS011;59686;51.716;7.016;2024-02-21T03:56:02;17.10;;;9.57;;
71836;SDS011;59686;51.716;7.016;2024-02-21T03:58:32;17.07;;;8.40;;
71836;SDS011;59686;51.716;7.016;2024-02-21T04:01:01;18.30;;;8.83;;
71836;SDS011;59686;51.716;7.016;2024-02-21T04:03:27;13.17;;;8.43;;
71836;SDS011;59686;51.716;7.016;2024-02-21T04:05:53;17.27;;;8.33;;
71836;SDS011;59686;51.716;7.016;2024-02-21T04:08:19;16.90;;;8.40;;
71836;SDS011;59686;51.716;7.016;2024-02-21T04:10:45;12.53;;;8.10;;
71836;SDS011;59686;51.716;7.016;2024-02-21T04:13:12;19.30;;;8.67;;
71836;SDS011;59686;51.716;7.016;2024-02-21T04:15:37;15.40;;;7.77;;
71836;SDS011;59686;51.716;7.016;2024-02-21T04:18:03;13.63;;;8.30;;
71836;SDS011;59686;51.716;7.016;2024-02-21T04:20:29;13.33;;;7.63;;
71836;SDS011;59686;51.716;7.016;2024-02-21T04:22:55;15.20;;;8.17;;
71836;SDS011;59686;51.716;7.016;2024-02-21T04:25:21;14.07;;;7.77;;
71836;SDS011;59686;51.716;7.016;2024-02-21T04:27:47;12.53;;;7.63;;
71836;SDS011;59686;51.716;7.016;2024-02-21T04:30:13;15.33;;;7.97;;
71836;SDS011;59686;51.716;7.016;2024-02-21T04:32:39;15.57;;;7.70;;
71836;SDS011;59686;51.716;7.016;2024-02-21T04:35:05;13.77;;;7.70;;
71836;SDS011;59686;51.716;7.016;2024-02-21T04:37:32;12.13;;;7.53;;
71836;SDS011;59686;51.716;7.016;2024-02-21T04:39:57;14.13;;;7.63;;
71836;SDS011;59686;51.716;7.016;2024-02-21T04:42:23;13.63;;;7.90;;
71836;SDS011;59686;51.716;7.016;2024-02-21T04:44:49;13.13;;;7.43;;
71836;SDS011;59686;51.716;7.016;2024-02-21T04:47:14;15.07;;;7.53;;
71836;SDS011;59686;51.716;7.016;2024-02-21T04:49:40;14.63;;;7.93;;
71836;SDS011;59686;51.716;7.016;2024-02-21T04:52:06;14.83;;;7.13;;
71836;SDS011;59686;51.716;7.016;2024-02-21T04:54:32;12.67;;;7.23;;
71836;SDS011;59686;51.716;7.016;2024-02-21T04:56:57;12.07;;;7.53;;
71836;SDS011;59686;51.716;7.016;2024-02-21T04:59:23;13.77;;;7.50;;
71836;SDS011;59686;51.716;7.016;2024-02-21T05:01:48;13.73;;;7.10;;
71836;SDS011;59686;51.716;7.016;2024-02-21T05:04:14;12.07;;;7.10;;
71836;SDS011;59686;51.716;7.016;2024-02-21T05:06:43;13.53;;;7.63;;
71836;SDS011;59686;51.716;7.016;2024-02-21T05:09:09;10.80;;;7.10;;
71836;SDS011;59686;51.716;7.016;2024-02-21T05:11:35;15.20;;;7.33;;
71836;SDS011;59686;51.716;7.016;2024-02-21T05:14:01;12.90;;;7.57;;
71836;SDS011;59686;51.716;7.016;2024-02-21T05:16:28;12.93;;;7.17;;
71836;SDS011;59686;51.716;7.016;2024-02-21T05:18:54;13.63;;;7.17;;
71836;SDS011;59686;51.716;7.016;2024-02-21T05:21:21;14.90;;;7.40;;
71836;SDS011;59686;51.716;7.016;2024-02-21T05:23:49;12.97;;;7.07;;
71836;SDS011;59686;51.716;7.016;2024-02-21T05:26:24;11.63;;;7.00;;
71836;SDS011;59686;51.716;7.016;2024-02-21T05:28:50;15.20;;;6.80;;
71836;SDS011;59686;51.716;7.016;2024-02-21T05:31:20;10.00;;;6.50;;
71836;SDS011;59686;51.716;7.016;2024-02-21T05:33:48;11.77;;;7.10;;
71836;SDS011;59686;51.716;7.016;2024-02-21T05:36:14;10.03;;;7.07;;
71836;SDS011;59686;51.716;7.016;2024-02-21T05:38:40;12.17;;;7.10;;
71836;SDS011;59686;51.716;7.016;2024-02-21T05:41:05;12.00;;;6.30;;
71836;SDS011;59686;51.716;7.016;2024-02-21T05:43:31;13.80;;;6.90;;
71836;SDS011;59686;51.716;7.016;2024-02-21T05:45:57;12.67;;;6.70;;
71836;SDS011;59686;51.716;7.016;2024-02-21T05:48:23;12.30;;;6.50;;
71836;SDS011;59686;51.716;7.016;2024-02-21T05:50:49;12.27;;;6.57;;
71836;SDS011;59686;51.716;7.016;2024-02-21T05:53:15;10.63;;;7.00;;
71836;SDS011;59686;51.716;7.016;2024-02-21T05:55:41;12.13;;;6.27;;
71836;SDS011;59686;51.716;7.016;2024-02-21T05:58:06;8.93;;;5.97;;
71836;SDS011;59686;51.716;7.016;2024-02-21T06:00:32;13.27;;;6.97;;
71836;SDS011;59686;51.716;7.016;2024-02-21T06:02:58;12.83;;;6.83;;
71836;SDS011;59686;51.716;7.016;2024-02-21T06:05:24;7.97;;;5.40;;
71836;SDS011;59686;51.716;7.016;2024-02-21T06:07:50;13.07;;;6.43;;
71836;SDS011;59686;51.716;7.016;2024-02-21T06:10:16;11.67;;;6.03;;
71836;SDS011;59686;51.716;7.016;2024-02-21T06:12:41;12.00;;;5.90;;
71836;SDS011;59686;51.716;7.016;2024-02-21T06:15:07;7.67;;;5.87;;
71836;SDS011;59686;51.716;7.016;2024-02-21T06:17:33;11.73;;;5.87;;
71836;SDS011;59686;51.716;7.016;2024-02-21T06:19:59;10.03;;;6.03;;
71836;SDS011;59686;51.716;7.016;2024-02-21T06:22:25;10.57;;;6.53;;
71836;SDS011;59686;51.716;7.016;2024-02-21T06:24:51;13.27;;;6.30;;
71836;SDS011;59686;51.716;7.016;2024-02-21T06:27:16;10.30;;;6.33;;
71836;SDS011;59686;51.716;7.016;2024-02-21T06:29:42;10.83;;;6.00;;
71836;SDS011;59686;51.716;7.016;2024-02-21T06:32:08;11.23;;;5.80;;
71836;SDS011;59686;51.716;7.016;2024-02-21T06:34:34;10.97;;;6.07;;
71836;SDS011;59686;51.716;7.016;2024-02-21T06:36:59;13.80;;;5.83;;
71836;SDS011;59686;51.716;7.016;2024-02-21T06:39:29;9.57;;;5.47;;
71836;SDS011;59686;51.716;7.016;2024-02-21T06:41:55;11.27;;;6.17;;
71836;SDS011;59686;51.716;7.016;2024-02-21T06:44:23;12.50;;;6.40;;
71836;SDS011;59686;51.716;7.016;2024-02-21T06:46:49;12.50;;;6.10;;
71836;SDS011;59686;51.716;7.016;2024-02-21T06:49:15;10.17;;;5.90;;
71836;SDS011;59686;51.716;7.016;2024-02-21T06:51:44;10.43;;;6.70;;
71836;SDS011;59686;51.716;7.016;2024-02-21T06:54:10;10.67;;;6.17;;
71836;SDS011;59686;51.716;7.016;2024-02-21T06:56:36;14.53;;;6.50;;
71836;SDS011;59686;51.716;7.016;2024-02-21T06:59:03;13.30;;;6.83;;
71836;SDS011;59686;51.716;7.016;2024-02-21T07:01:29;13.90;;;6.90;;
71836;SDS011;59686;51.716;7.016;2024-02-21T07:03:55;13.20;;;6.43;;
71836;SDS011;59686;51.716;7.016;2024-02-21T07:06:21;14.37;;;6.97;;
71836;SDS011;59686;51.716;7.016;2024-02-21T07:08:47;13.53;;;6.37;;
71836;SDS011;59686;51.716;7.016;2024-02-21T07:11:13;12.10;;;6.30;;
71836;SDS011;59686;51.716;7.016;2024-02-21T07:13:39;14.33;;;7.20;;
71836;SDS011;59686;51.716;7.016;2024-02-21T07:16:05;13.43;;;6.87;;
71836;SDS011;59686;51.716;7.016;2024-02-21T07:18:31;14.07;;;7.17;;
71836;SDS011;59686;51.716;7.016;2024-02-21T07:20:57;17.87;;;6.90;;
71836;SDS011;59686;51.716;7.016;2024-02-21T07:23:23;12.93;;;7.40;;
71836;SDS011;59686;51.716;7.016;2024-02-21T07:25:49;15.17;;;7.17;;
71836;SDS011;59686;51.716;7.016;2024-02-21T07:28:15;15.67;;;7.03;;
71836;SDS011;59686;51.716;7.016;2024-02-21T07:30:41;12.13;;;7.30;;
71836;SDS011;59686;51.716;7.016;2024-02-21T07:33:07;15.80;;;7.40;;
71836;SDS011;59686;51.716;7.016;2024-02-21T07:35:33;14.30;;;7.27;;
71836;SDS011;59686;51.716;7.016;2024-02-21T07:37:59;17.30;;;7.00;;
71836;SDS011;59686;51.716;7.016;2024-02-21T07:40:24;15.50;;;7.23;;
71836;SDS011;59686;51.716;7.016;2024-02-21T07:42:50;16.80;;;7.33;;
71836;SDS011;59686;51.716;7.016;2024-02-21T07:45:16;14.20;;;7.20;;
71836;SDS011;59686;51.716;7.016;2024-02-21T07:47:43;10.07;;;6.37;;
71836;SDS011;59686;51.716;7.016;2024-02-21T07:50:09;16.17;;;7.57;;
71836;SDS011;59686;51.716;7.016;2024-02-21T07:52:35;11.40;;;7.23;;
71836;SDS011;59686;51.716;7.016;2024-02-21T07:55:00;10.00;;;6.60;;
71836;SDS011;59686;51.716;7.016;2024-02-21T07:57:26;14.90;;;7.00;;
71836;SDS011;59686;51.716;7.016;2024-02-21T07:59:51;10.93;;;7.00;;
71836;SDS011;59686;51.716;7.016;2024-02-21T08:02:17;13.67;;;6.93;;
71836;SDS011;59686;51.716;7.016;2024-02-21T08:04:43;12.70;;;7.00;;
71836;SDS011;59686;51.716;7.016;2024-02-21T08:07:09;12.33;;;7.53;;
71836;SDS011;59686;51.716;7.016;2024-02-21T08:09:35;14.20;;;7.03;;
71836;SDS011;59686;51.716;7.016;2024-02-21T08:12:03;11.97;;;6.93;;
71836;SDS011;59686;51.716;7.016;2024-02-21T08:14:29;13.87;;;6.33;;
71836;SDS011;59686;51.716;7.016;2024-02-21T08:16:55;13.30;;;6.53;;
71836;SDS011;59686;51.716;7.016;2024-02-21T08:19:21;13.43;;;7.03;;
71836;SDS011;59686;51.716;7.016;2024-02-21T08:21:49;13.37;;;7.20;;
71836;SDS011;59686;51.716;7.016;2024-02-21T08:24:15;12.10;;;6.57;;
71836;SDS011;59686;51.716;7.016;2024-02-21T08:26:41;11.80;;;7.07;;
71836;SDS011;59686;51.716;7.016;2024-02-21T08:29:07;16.97;;;6.83;;
71836;SDS011;59686;51.716;7.016;2024-02-21T08:31:33;16.20;;;7.30;;
71836;SDS011;59686;51.716;7.016;2024-02-21T08:34:02;12.70;;;6.10;;
71836;SDS011;59686;51.716;7.016;2024-02-21T08:36:32;14.60;;;6.40;;
71836;SDS011;59686;51.716;7.016;2024-02-21T08:38:58;10.90;;;6.43;;
71836;SDS011;59686;51.716;7.016;2024-02-21T08:41:24;12.37;;;6.70;;
71836;SDS011;59686;51.716;7.016;2024-02-21T08:43:54;12.10;;;6.33;;
71836;SDS011;59686;51.716;7.016;2024-02-21T08:46:20;13.03;;;6.43;;
71836;SDS011;59686;51.716;7.016;2024-02-21T08:48:46;10.60;;;6.20;;
71836;SDS011;59686;51.716;7.016;2024-02-21T08:51:12;12.70;;;6.33;;
71836;SDS011;59686;51.716;7.016;2024-02-21T08:53:38;11.43;;;5.93;;
71836;SDS011;59686;51.716;7.016;2024-02-21T08:56:04;10.07;;;5.60;;
71836;SDS011;59686;51.716;7.016;2024-02-21T08:58:30;13.03;;;6.33;;
71836;SDS011;59686;51.716;7.016;2024-02-21T09:00:56;8.87;;;6.00;;
71836;SDS011;59686;51.716;7.016;2024-02-21T09:03:22;10.87;;;5.80;;
71836;SDS011;59686;51.716;7.016;2024-02-21T09:05:48;12.20;;;6.43;;
71836;SDS011;59686;51.716;7.016;2024-02-21T09:08:14;14.07;;;6.17;;
71836;SDS011;59686;51.716;7.016;2024-02-21T09:10:40;11.00;;;5.47;;
71836;SDS011;59686;51.716;7.016;2024-02-21T09:13:05;10.87;;;5.53;;
71836;SDS011;59686;51.716;7.016;2024-02-21T09:15:33;10.27;;;5.60;;
71836;SDS011;59686;51.716;7.016;2024-02-21T09:17:58;8.63;;;5.10;;
71836;SDS011;59686;51.716;7.016;2024-02-21T09:20:24;13.80;;;5.87;;
71836;SDS011;59686;51.716;7.016;2024-02-21T09:22:50;16.43;;;5.47;;
71836;SDS011;59686;51.716;7.016;2024-02-21T09:25:17;12.83;;;5.73;;
71836;SDS011;59686;51.716;7.016;2024-02-21T09:27:43;9.80;;;5.03;;
71836;SDS011;59686;51.716;7.016;2024-02-21T09:30:10;10.43;;;5.40;;
71836;SDS011;59686;51.716;7.016;2024-02-21T09:32:36;9.63;;;5.60;;
71836;SDS011;59686;51.716;7.016;2024-02-21T09:35:02;9.73;;;5.43;;
71836;SDS011;59686;51.716;7.016;2024-02-21T09:37:28;10.17;;;5.30;;
71836;SDS011;59686;51.716;7.016;2024-02-21T09:39:54;10.00;;;5.53;;
71836;SDS011;59686;51.716;7.016;2024-02-21T09:42:20;10.00;;;5.50;;
71836;SDS011;59686;51.716;7.016;2024-02-21T09:44:46;13.10;;;5.73;;
71836;SDS011;59686;51.716;7.016;2024-02-21T09:49:44;12.40;;;5.40;;
71836;SDS011;59686;51.716;7.016;2024-02-21T09:52:10;12.13;;;6.00;;
71836;SDS011;59686;51.716;7.016;2024-02-21T09:54:39;10.13;;;5.20;;
71836;SDS011;59686;51.716;7.016;2024-02-21T09:57:07;8.77;;;4.90;;
71836;SDS011;59686;51.716;7.016;2024-02-21T09:59:33;8.57;;;5.57;;
71836;SDS011;59686;51.716;7.016;2024-02-21T10:01:59;9.33;;;5.17;;
71836;SDS011;59686;51.716;7.016;2024-02-21T10:04:25;12.20;;;5.40;;
71836;SDS011;59686;51.716;7.016;2024-02-21T10:06:51;10.43;;;5.13;;
71836;SDS011;59686;51.716;7.016;2024-02-21T10:09:28;12.30;;;5.30;;
71836;SDS011;59686;51.716;7.016;2024-02-21T10:11:54;9.37;;;4.80;;
71836;SDS011;59686;51.716;7.016;2024-02-21T10:14:20;9.27;;;4.83;;
71836;SDS011;59686;51.716;7.016;2024-02-21T10:16:56;8.60;;;4.80;;
71836;SDS011;59686;51.716;7.016;2024-02-21T10:19:26;11.13;;;5.03;;
71836;SDS011;59686;51.716;7.016;2024-02-21T10:24:27;7.53;;;4.50;;
71836;SDS011;59686;51.716;7.016;2024-02-21T10:27:03;13.30;;;5.03;;
71836;SDS011;59686;51.716;7.016;2024-02-21T10:29:35;7.37;;;4.47;;
71836;SDS011;59686;51.716;7.016;2024-02-21T10:32:11;8.57;;;4.90;;
71836;SDS011;59686;51.716;7.016;2024-02-21T10:34:38;9.17;;;4.50;;
71836;SDS011;59686;51.716;7.016;2024-02-21T10:37:05;9.57;;;4.83;;
71836;SDS011;59686;51.716;7.016;2024-02-21T10:39:33;7.70;;;4.30;;
71836;SDS011;59686;51.716;7.016;2024-02-21T10:42:01;8.00;;;4.77;;
71836;SDS011;59686;51.716;7.016;2024-02-21T10:44:32;7.83;;;4.27;;
71836;SDS011;59686;51.716;7.016;2024-02-21T10:46:58;10.33;;;5.30;;
71836;SDS011;59686;51.716;7.016;2024-02-21T10:49:27;9.60;;;4.40;;
71836;SDS011;59686;51.716;7.016;2024-02-21T10:54:59;9.83;;;4.43;;
71836;SDS011;59686;51.716;7.016;2024-02-21T10:57:35;9.00;;;4.53;;
71836;SDS011;59686;51.716;7.016;2024-02-21T11:00:03;10.93;;;4.83;;
71836;SDS011;59686;51.716;7.016;2024-02-21T11:02:33;7.70;;;4.70;;
71836;SDS011;59686;51.716;7.016;2024-02-21T11:04:59;9.67;;;4.23;;
71836;SDS011;59686;51.716;7.016;2024-02-21T11:07:29;8.47;;;4.57;;
71836;SDS011;59686;51.716;7.016;2024-02-21T11:09:57;10.23;;;3.93;;
71836;SDS011;59686;51.716;7.016;2024-02-21T11:12:24;10.43;;;4.70;;
71836;SDS011;59686;51.716;7.016;2024-02-21T11:14:51;9.77;;;4.77;;
71836;SDS011;59686;51.716;7.016;2024-02-21T11:17:17;6.57;;;4.10;;
71836;SDS011;59686;51.716;7.016;2024-02-21T11:19:46;8.47;;;4.17;;
71836;SDS011;59686;51.716;7.016;2024-02-21T11:22:16;12.13;;;4.63;;
71836;SDS011;59686;51.716;7.016;2024-02-21T11:24:42;8.20;;;3.97;;
71836;SDS011;59686;51.716;7.016;2024-02-21T11:27:09;9.13;;;3.90;;
71836;SDS011;59686;51.716;7.016;2024-02-21T11:29:42;6.97;;;4.17;;
71836;SDS011;59686;51.716;7.016;2024-02-21T11:32:17;7.73;;;4.10;;
71836;SDS011;59686;51.716;7.016;2024-02-21T11:34:55;10.70;;;3.93;;
71836;SDS011;59686;51.716;7.016;2024-02-21T11:37:27;6.30;;;3.63;;
71836;SDS011;59686;51.716;7.016;2024-02-21T11:39:57;9.83;;;3.90;;
71836;SDS011;59686;51.716;7.016;2024-02-21T11:42:26;8.90;;;3.63;;
71836;SDS011;59686;51.716;7.016;2024-02-21T11:44:53;7.63;;;3.57;;
71836;SDS011;59686;51.716;7.016;2024-02-21T11:47:21;6.07;;;3.37;;
71836;SDS011;59686;51.716;7.016;2024-02-21T11:49:48;6.93;;;3.73;;
71836;SDS011;59686;51.716;7.016;2024-02-21T11:52:19;5.37;;;3.50;;
71836;SDS011;59686;51.716;7.016;2024-02-21T11:54:50;9.27;;;4.33;;
71836;SDS011;59686;51.716;7.016;2024-02-21T11:57:16;7.23;;;3.03;;
71836;SDS011;59686;51.716;7.016;2024-02-21T11:59:43;8.67;;;3.30;;
71836;SDS011;59686;51.716;7.016;2024-02-21T12:02:10;5.70;;;3.53;;
71836;SDS011;59686;51.716;7.016;2024-02-21T12:04:36;7.37;;;3.40;;
71836;SDS011;59686;51.716;7.016;2024-02-21T12:07:02;8.97;;;3.83;;
71836;SDS011;59686;51.716;7.016;2024-02-21T12:09:29;6.37;;;3.47;;
71836;SDS011;59686;51.716;7.016;2024-02-21T12:12:04;9.50;;;3.77;;
71836;SDS011;59686;51.716;7.016;2024-02-21T12:14:31;9.67;;;3.73;;
71836;SDS011;59686;51.716;7.016;2024-02-21T12:16:59;7.30;;;3.73;;
71836;SDS011;59686;51.716;7.016;2024-02-21T12:19:25;7.23;;;3.63;;
71836;SDS011;59686;51.716;7.016;2024-02-21T12:21:54;7.33;;;3.20;;
71836;SDS011;59686;51.716;7.016;2024-02-21T12:24:24;10.13;;;3.73;;
71836;SDS011;59686;51.716;7.016;2024-02-21T12:26:50;4.87;;;3.60;;
71836;SDS011;59686;51.716;7.016;2024-02-21T12:29:17;7.47;;;3.63;;
71836;SDS011;59686;51.716;7.016;2024-02-21T12:31:44;10.57;;;3.60;;
71836;SDS011;59686;51.716;7.016;2024-02-21T12:34:10;8.17;;;3.50;;
71836;SDS011;59686;51.716;7.016;2024-02-21T12:36:36;8.00;;;3.70;;
71836;SDS011;59686;51.716;7.016;2024-02-21T12:39:07;6.30;;;3.67;;
71836;SDS011;59686;51.716;7.016;2024-02-21T12:41:33;6.63;;;3.20;;
71836;SDS011;59686;51.716;7.016;2024-02-21T12:44:03;8.07;;;3.73;;
71836;SDS011;59686;51.716;7.016;2024-02-21T12:46:35;11.57;;;4.07;;
71836;SDS011;59686;51.716;7.016;2024-02-21T12:49:04;7.10;;;3.60;;
71836;SDS011;59686;51.716;7.016;2024-02-21T12:51:33;8.43;;;3.63;;
71836;SDS011;59686;51.716;7.016;2024-02-21T12:54:00;8.47;;;4.03;;
71836;SDS011;59686;51.716;7.016;2024-02-21T12:56:26;6.67;;;3.60;;
71836;SDS011;59686;51.716;7.016;2024-02-21T12:58:57;6.87;;;3.40;;
71836;SDS011;59686;51.716;7.016;2024-02-21T13:01:23;6.70;;;3.77;;
71836;SDS011;59686;51.716;7.016;2024-02-21T13:03:49;8.70;;;3.97;;
71836;SDS011;59686;51.716;7.016;2024-02-21T13:06:14;7.93;;;3.93;;
71836;SDS011;59686;51.716;7.016;2024-02-21T13:08:40;8.83;;;3.63;;
71836;SDS011;59686;51.716;7.016;2024-02-21T13:11:06;6.43;;;3.60;;
71836;SDS011;59686;51.716;7.016;2024-02-21T13:13:32;11.33;;;4.10;;
71836;SDS011;59686;51.716;7.016;2024-02-21T13:15:58;7.17;;;3.80;;
71836;SDS011;59686;51.716;7.016;2024-02-21T13:18:24;9.50;;;3.63;;
71836;SDS011;59686;51.716;7.016;2024-02-21T13:20:49;6.93;;;3.60;;
71836;SDS011;59686;51.716;7.016;2024-02-21T13:23:15;7.10;;;3.67;;
71836;SDS011;59686;51.716;7.016;2024-02-21T13:25:41;5.13;;;3.30;;
71836;SDS011;59686;51.716;7.016;2024-02-21T13:28:07;7.70;;;3.87;;
71836;SDS011;59686;51.716;7.016;2024-02-21T13:30:34;8.47;;;3.70;;
71836;SDS011;59686;51.716;7.016;2024-02-21T13:33:00;6.87;;;3.50;;
71836;SDS011;59686;51.716;7.016;2024-02-21T13:35:26;6.70;;;3.27;;
71836;SDS011;59686;51.716;7.016;2024-02-21T13:37:53;9.53;;;4.03;;
71836;SDS011;59686;51.716;7.016;2024-02-21T13:40:18;6.90;;;3.37;;
71836;SDS011;59686;51.716;7.016;2024-02-21T13:42:44;6.80;;;3.50;;
71836;SDS011;59686;51.716;7.016;2024-02-21T13:45:10;9.73;;;3.23;;
71836;SDS011;59686;51.716;7.016;2024-02-21T13:47:36;9.67;;;3.43;;
71836;SDS011;59686;51.716;7.016;2024-02-21T13:50:02;8.13;;;3.43;;
71836;SDS011;59686;51.716;7.016;2024-02-21T13:52:29;6.20;;;3.30;;
71836;SDS011;59686;51.716;7.016;2024-02-21T13:54:56;9.20;;;3.20;;
71836;SDS011;59686;51.716;7.016;2024-02-21T13:57:21;7.10;;;3.40;;
71836;SDS011;59686;51.716;7.016;2024-02-21T13:59:47;8.13;;;3.50;;
71836;SDS011;59686;51.716;7.016;2024-02-21T14:02:13;8.30;;;3.57;;
71836;SDS011;59686;51.716;7.016;2024-02-21T14:04:39;8.83;;;3.50;;
71836;SDS011;59686;51.716;7.016;2024-02-21T14:07:04;7.00;;;3.20;;
71836;SDS011;59686;51.716;7.016;2024-02-21T14:09:30;9.50;;;3.47;;
71836;SDS011;59686;51.716;7.016;2024-02-21T14:11:59;9.53;;;3.40;;
71836;SDS011;59686;51.716;7.016;2024-02-21T14:14:25;8.03;;;3.40;;
71836;SDS011;59686;51.716;7.016;2024-02-21T14:16:50;8.70;;;3.17;;
71836;SDS011;59686;51.716;7.016;2024-02-21T14:19:16;6.97;;;3.20;;
71836;SDS011;59686;51.716;7.016;2024-02-21T14:21:43;7.80;;;3.03;;
71836;SDS011;59686;51.716;7.016;2024-02-21T14:24:09;7.50;;;3.07;;
71836;SDS011;59686;51.716;7.016;2024-02-21T14:26:36;5.93;;;3.23;;
71836;SDS011;59686;51.716;7.016;2024-02-21T14:29:02;12.70;;;3.30;;
71836;SDS011;59686;51.716;7.016;2024-02-21T14:31:31;7.63;;;3.20;;
71836;SDS011;59686;51.716;7.016;2024-02-21T14:33:57;6.77;;;2.63;;
71836;SDS011;59686;51.716;7.016;2024-02-21T14:36:23;6.90;;;3.07;;
71836;SDS011;59686;51.716;7.016;2024-02-21T14:38:49;7.27;;;3.50;;
71836;SDS011;59686;51.716;7.016;2024-02-21T14:41:17;10.50;;;3.40;;
71836;SDS011;59686;51.716;7.016;2024-02-21T14:43:43;5.50;;;2.67;;